Time;durP1;ratioP1;P1;durP2;ratioP2;P2;SDS_P1;SDS_P2;PMS_P1;PMS_P2;Temp;Humidity;BMP_temperature;BMP_pressure;BME280_temperature;BME280_humidity;BME280_pressure;Samples;Min_cycle;Max_cycle;Signal;HPM_P1;HPM_P2
2023/05/06 00:01:24;;;;;;;3.50;2.10;;;14.50;79.30;;;;;;4917838;29;20036;-80
2023/05/06 00:03:50;;;;;;;3.67;1.90;;;14.50;79.30;;;;;;4900759;29;20062;-82
2023/05/06 00:06:16;;;;;;;5.05;2.30;;;14.50;79.30;;;;;;4900806;29;20025;-81
2023/05/06 00:08:41;;;;;;;3.20;1.88;;;14.50;79.30;;;;;;4900469;29;20119;-81
2023/05/06 00:11:07;;;;;;;3.67;2.10;;;14.50;79.30;;;;;;4917771;29;20036;-81
2023/05/06 00:13:32;;;;;;;4.28;2.20;;;14.50;79.30;;;;;;4900564;29;20031;-81
2023/05/06 00:15:58;;;;;;;5.57;2.20;;;14.50;79.30;;;;;;4900672;29;20020;-81
2023/05/06 00:18:23;;;;;;;3.45;2.10;;;14.50;79.30;;;;;;4914193;29;20042;-80
2023/05/06 00:20:49;;;;;;;4.40;2.30;;;14.60;79.40;;;;;;4883365;29;20115;-81
2023/05/06 00:23:15;;;;;;;3.80;2.20;;;14.50;79.40;;;;;;4881618;29;20060;-80
2023/05/06 00:25:40;;;;;;;3.50;2.10;;;14.50;79.40;;;;;;4911968;29;20384;-81
2023/05/06 00:28:06;;;;;;;3.47;2.25;;;14.50;79.40;;;;;;4900117;29;20073;-80
2023/05/06 00:30:31;;;;;;;4.68;2.15;;;14.50;79.40;;;;;;4900317;29;20032;-81
2023/05/06 00:32:57;;;;;;;3.53;2.10;;;14.50;79.30;;;;;;4917404;29;20029;-82
2023/05/06 00:35:22;;;;;;;3.45;2.03;;;14.50;79.30;;;;;;4900003;29;20042;-81
2023/05/06 00:38:05;;;;;;;3.75;2.30;;;14.50;79.30;;;;;;4899927;29;20032;-81
2023/05/06 00:40:31;;;;;;;3.97;2.20;;;14.50;79.40;;;;;;4896388;29;20036;-82
2023/05/06 00:42:56;;;;;;;3.45;2.08;;;14.50;79.30;;;;;;4900051;29;20120;-81
2023/05/06 00:45:23;;;;;;;3.88;2.20;;;14.60;79.40;;;;;;4917002;29;20060;-81
2023/05/06 00:47:48;;;;;;;4.03;2.20;;;14.50;79.30;;;;;;4898382;29;20024;-81
2023/05/06 00:50:14;;;;;;;5.07;2.30;;;14.50;79.30;;;;;;4898254;29;20081;-82
2023/05/06 00:52:39;;;;;;;4.35;2.20;;;14.50;79.30;;;;;;4898346;29;20024;-81
2023/05/06 00:55:05;;;;;;;3.85;2.30;;;14.50;79.40;;;;;;4881194;29;20124;-81
2023/05/06 00:57:31;;;;;;;3.58;2.30;;;14.50;79.30;;;;;;4881175;29;20088;-81
2023/05/06 00:59:56;;;;;;;4.65;2.38;;;14.50;79.40;;;;;;4881036;29;20031;-80
2023/05/06 01:02:22;;;;;;;3.80;2.20;;;14.50;79.40;;;;;;4896581;29;20085;-81
2023/05/06 01:04:47;;;;;;;3.83;2.00;;;14.50;79.30;;;;;;4881092;29;20028;-81
2023/05/06 01:07:51;;;;;;;4.28;2.35;;;14.50;79.30;;;;;;4881160;29;20033;-81
2023/05/06 01:10:33;;;;;;;3.42;2.00;;;14.50;79.30;;;;;;4911091;29;20028;-80
2023/05/06 01:13:11;;;;;;;3.95;2.05;;;14.50;79.40;;;;;;4899717;29;20036;-81
2023/05/06 01:15:48;;;;;;;3.85;2.30;;;14.50;79.40;;;;;;4893174;29;20068;-83
2023/05/06 01:18:24;;;;;;;3.72;2.13;;;14.50;79.40;;;;;;4916506;29;20118;-81
2023/05/06 01:20:52;;;;;;;3.53;2.15;;;14.50;79.40;;;;;;4899642;29;20028;-82
2023/05/06 01:23:18;;;;;;;4.15;2.42;;;14.50;79.40;;;;;;4899388;29;20024;-81
2023/05/06 01:25:43;;;;;;;3.60;2.20;;;14.50;79.40;;;;;;4899556;29;20034;-81
2023/05/06 01:28:11;;;;;;;3.20;2.15;;;14.50;79.50;;;;;;4899264;29;20028;-81
2023/05/06 01:31:02;;;;;;;3.88;2.40;;;14.50;79.40;;;;;;4899502;29;20028;-82
2023/05/06 01:34:13;;;;;;;3.60;2.17;;;14.50;79.40;;;;;;4899256;29;20051;-81
2023/05/06 01:37:00;;;;;;;5.03;2.80;;;14.50;79.50;;;;;;4806172;29;20129;-82
2023/05/06 01:39:28;;;;;;;3.92;2.22;;;14.50;79.50;;;;;;4821189;29;20117;-82
2023/05/06 01:41:56;;;;;;;3.35;2.00;;;14.50;79.50;;;;;;4900365;29;20382;-81
2023/05/06 01:44:22;;;;;;;4.13;2.40;;;14.50;79.50;;;;;;4899310;29;20475;-82
2023/05/06 01:46:50;;;;;;;4.45;2.55;;;14.60;79.60;;;;;;4916254;29;20103;-81
2023/05/06 01:49:17;;;;;;;3.83;2.35;;;14.50;79.50;;;;;;4915925;29;20032;-81
2023/05/06 01:51:50;;;;;;;3.60;2.28;;;14.50;79.60;;;;;;4903322;29;20028;-82
2023/05/06 01:54:16;;;;;;;4.15;2.25;;;14.50;79.60;;;;;;4919961;29;20056;-81
2023/05/06 01:56:42;;;;;;;4.07;2.40;;;14.50;79.60;;;;;;4903067;29;20035;-80
2023/05/06 01:59:07;;;;;;;4.05;2.30;;;14.50;79.60;;;;;;4920181;29;20579;-82
2023/05/06 02:01:33;;;;;;;3.85;2.35;;;14.50;79.60;;;;;;4902995;29;20040;-81
2023/05/06 02:03:58;;;;;;;4.25;2.60;;;14.50;79.60;;;;;;4902835;29;20396;-81
2023/05/06 02:06:23;;;;;;;3.97;2.25;;;14.50;79.70;;;;;;4902946;29;20055;-82
2023/05/06 02:08:49;;;;;;;4.85;2.70;;;14.50;79.70;;;;;;4895557;29;20024;-82
2023/05/06 02:11:14;;;;;;;4.03;2.50;;;14.50;79.70;;;;;;4884122;29;20036;-81
2023/05/06 02:13:40;;;;;;;3.95;2.42;;;14.50;79.70;;;;;;4884108;29;20490;-82
2023/05/06 02:16:07;;;;;;;4.60;2.53;;;14.50;79.70;;;;;;4900902;29;20438;-80
2023/05/06 02:18:33;;;;;;;4.47;2.60;;;14.50;79.70;;;;;;4891608;29;20028;-82
2023/05/06 02:20:58;;;;;;;4.35;2.60;;;14.50;79.70;;;;;;4902456;29;20035;-81
2023/05/06 02:23:24;;;;;;;4.30;2.50;;;14.50;79.80;;;;;;4919395;29;20037;-80
2023/05/06 02:25:50;;;;;;;4.50;2.33;;;14.50;79.80;;;;;;4902592;29;20026;-80
2023/05/06 02:28:16;;;;;;;3.95;2.45;;;14.50;79.80;;;;;;4899332;29;20103;-81
2023/05/06 02:30:41;;;;;;;4.20;2.50;;;14.50;79.80;;;;;;4883871;29;20055;-82
2023/05/06 02:33:07;;;;;;;4.63;2.80;;;14.40;79.70;;;;;;4899458;29;20032;-81
2023/05/06 02:35:32;;;;;;;5.45;2.80;;;14.50;79.80;;;;;;4883619;29;20498;-81
2023/05/06 02:37:58;;;;;;;4.57;2.60;;;14.50;79.80;;;;;;4883475;29;20033;-82
2023/05/06 02:40:23;;;;;;;4.30;2.53;;;14.50;79.80;;;;;;4899250;29;20033;-81
2023/05/06 02:42:49;;;;;;;5.20;2.78;;;14.50;79.80;;;;;;4883536;29;20549;-81
2023/05/06 02:45:15;;;;;;;4.53;2.70;;;14.50;79.80;;;;;;4883535;29;20025;-80
2023/05/06 02:47:40;;;;;;;4.05;2.40;;;14.50;79.80;;;;;;4883227;29;20598;-81
2023/05/06 02:50:06;;;;;;;4.68;2.65;;;14.50;79.80;;;;;;4889639;29;20032;-81
2023/05/06 02:52:33;;;;;;;4.53;2.75;;;14.50;79.90;;;;;;4891205;29;20032;-81
2023/05/06 02:54:59;;;;;;;5.57;2.70;;;14.50;79.80;;;;;;4898929;29;20065;-80
2023/05/06 02:57:25;;;;;;;4.20;2.45;;;14.50;79.90;;;;;;4883264;29;20115;-81
2023/05/06 02:59:50;;;;;;;4.60;2.50;;;14.50;79.90;;;;;;4900858;29;20133;-81
2023/05/06 03:02:16;;;;;;;4.80;2.78;;;14.50;79.90;;;;;;4902003;29;20067;-81
2023/05/06 03:04:41;;;;;;;4.75;2.83;;;14.50;79.90;;;;;;4901879;29;20385;-81
2023/05/06 03:07:07;;;;;;;4.60;2.65;;;14.50;79.90;;;;;;4902026;29;20031;-82
2023/05/06 03:09:32;;;;;;;4.75;2.72;;;14.50;79.90;;;;;;4897924;29;20039;-82
2023/05/06 03:11:58;;;;;;;4.78;2.60;;;14.50;79.90;;;;;;4901883;29;20132;-82
2023/05/06 03:14:23;;;;;;;4.90;2.80;;;14.50;79.90;;;;;;4901763;29;20039;-81
2023/05/06 03:16:49;;;;;;;4.50;2.50;;;14.60;79.90;;;;;;4901815;29;20050;-81
2023/05/06 03:19:14;;;;;;;4.85;2.90;;;14.50;79.90;;;;;;4901468;29;20035;-81
2023/05/06 03:21:40;;;;;;;4.30;2.63;;;14.50;79.90;;;;;;4917429;29;20115;-81
2023/05/06 03:24:05;;;;;;;4.75;2.60;;;14.50;79.90;;;;;;4901608;29;20024;-81
2023/05/06 03:26:31;;;;;;;4.72;2.65;;;14.50;79.90;;;;;;4901688;29;20453;-81
2023/05/06 03:28:56;;;;;;;4.88;2.83;;;14.50;79.90;;;;;;4901343;29;20025;-81
2023/05/06 03:31:22;;;;;;;4.40;2.58;;;14.50;79.90;;;;;;4918514;29;20553;-81
2023/05/06 03:33:47;;;;;;;5.22;2.88;;;14.50;79.90;;;;;;4901288;29;20055;-81
2023/05/06 03:36:13;;;;;;;4.93;2.55;;;14.50;80.00;;;;;;4901456;29;20248;-80
2023/05/06 03:38:39;;;;;;;5.22;2.72;;;14.50;79.90;;;;;;4889394;29;20035;-81
2023/05/06 03:41:05;;;;;;;4.60;3.03;;;14.50;80.00;;;;;;4899187;29;20393;-80
2023/05/06 03:43:30;;;;;;;4.68;2.70;;;14.50;80.00;;;;;;4882402;29;20024;-80
2023/05/06 03:45:56;;;;;;;5.18;2.80;;;14.50;80.00;;;;;;4882452;29;20020;-83
2023/05/06 03:48:22;;;;;;;5.32;2.80;;;14.50;80.00;;;;;;4898907;29;20036;-81
2023/05/06 03:50:48;;;;;;;4.70;2.78;;;14.50;80.00;;;;;;4898083;29;20486;-80
2023/05/06 03:53:14;;;;;;;3.95;2.30;;;14.50;80.00;;;;;;4882727;29;20108;-81
2023/05/06 03:55:39;;;;;;;4.78;2.47;;;14.50;80.00;;;;;;4882310;29;20037;-80
2023/05/06 03:58:05;;;;;;;4.32;2.70;;;14.50;80.00;;;;;;4886284;29;20032;-81
2023/05/06 04:00:30;;;;;;;4.47;2.58;;;14.50;80.00;;;;;;4900916;29;20358;-80
2023/05/06 04:02:56;;;;;;;4.88;2.97;;;14.50;80.00;;;;;;4900907;29;20037;-82
2023/05/06 04:05:21;;;;;;;5.93;3.03;;;14.50;80.00;;;;;;4917653;29;20507;-81
2023/05/06 04:07:47;;;;;;;4.55;2.70;;;14.50;80.00;;;;;;4900752;29;20597;-79
2023/05/06 04:10:12;;;;;;;5.20;3.00;;;14.50;80.00;;;;;;4900267;29;20028;-82
2023/05/06 04:12:38;;;;;;;4.47;2.58;;;14.50;80.00;;;;;;4900913;29;20024;-82
2023/05/06 04:15:04;;;;;;;4.55;2.70;;;14.50;80.00;;;;;;4917376;29;20036;-81
2023/05/06 04:17:30;;;;;;;5.25;3.10;;;14.50;80.00;;;;;;4917589;29;20370;-81
2023/05/06 04:19:56;;;;;;;4.75;2.55;;;14.50;80.00;;;;;;4900335;29;20052;-80
2023/05/06 04:22:22;;;;;;;4.70;2.80;;;14.50;80.00;;;;;;4917413;29;20028;-81
2023/05/06 04:24:47;;;;;;;4.60;2.60;;;14.50;79.90;;;;;;4900395;29;20366;-80
2023/05/06 04:27:13;;;;;;;5.22;2.88;;;14.50;80.00;;;;;;4900514;29;20032;-82
2023/05/06 04:29:39;;;;;;;4.32;2.50;;;14.50;80.00;;;;;;4887290;29;20032;-81
2023/05/06 04:32:04;;;;;;;4.68;2.70;;;14.50;80.00;;;;;;4881743;29;20517;-80
2023/05/06 04:34:30;;;;;;;5.60;3.00;;;14.50;79.90;;;;;;4881611;29;20052;-82
2023/05/06 04:36:57;;;;;;;4.22;2.55;;;14.50;79.90;;;;;;4881580;29;20394;-81
2023/05/06 04:39:23;;;;;;;4.70;2.85;;;14.50;79.90;;;;;;4897888;23;20036;-83
2023/05/06 04:41:48;;;;;;;5.07;3.03;;;14.50;79.90;;;;;;4928109;29;20051;-84
2023/05/06 04:44:14;;;;;;;4.60;2.72;;;14.50;79.90;;;;;;4938026;29;20019;-83
2023/05/06 04:46:39;;;;;;;4.70;2.83;;;14.50;79.90;;;;;;4937342;29;20039;-83
2023/05/06 04:49:05;;;;;;;4.70;3.00;;;14.50;79.90;;;;;;4937308;29;20024;-84
2023/05/06 04:51:30;;;;;;;4.70;2.63;;;14.50;79.90;;;;;;4925695;29;20069;-85
2023/05/06 04:53:56;;;;;;;4.28;2.63;;;14.50;79.90;;;;;;4921281;29;20032;-83
2023/05/06 04:56:21;;;;;;;4.28;2.53;;;14.50;79.90;;;;;;4921790;29;20023;-81
2023/05/06 04:58:47;;;;;;;5.07;3.08;;;14.50;79.90;;;;;;4918818;29;20107;-83
2023/05/06 05:01:12;;;;;;;4.88;2.90;;;14.50;79.80;;;;;;4919772;29;20522;-83
2023/05/06 05:03:38;;;;;;;4.25;2.55;;;14.50;79.80;;;;;;4921061;29;20035;-82
2023/05/06 05:06:03;;;;;;;4.25;2.78;;;14.50;79.80;;;;;;4920222;29;20028;-80
2023/05/06 05:08:29;;;;;;;4.85;2.75;;;14.50;79.80;;;;;;4915499;29;20023;-81
2023/05/06 05:10:55;;;;;;;4.35;2.60;;;14.50;79.80;;;;;;4932348;29;20028;-83
2023/05/06 05:13:20;;;;;;;5.13;2.78;;;14.50;79.80;;;;;;4935126;29;20104;-82
2023/05/06 05:15:46;;;;;;;5.20;2.90;;;14.50;79.80;;;;;;4919130;29;20033;-85
2023/05/06 05:18:11;;;;;;;5.35;2.72;;;14.50;79.80;;;;;;4919944;29;20659;-82
2023/05/06 05:20:37;;;;;;;5.15;2.85;;;14.50;79.80;;;;;;4918943;29;20063;-83
2023/05/06 05:23:02;;;;;;;4.85;3.10;;;14.50;79.80;;;;;;4916992;29;20030;-83
2023/05/06 05:25:28;;;;;;;5.22;2.95;;;14.50;79.70;;;;;;4919041;29;20433;-83
2023/05/06 05:27:53;;;;;;;4.50;2.80;;;14.50;79.70;;;;;;4919697;29;20039;-84
2023/05/06 05:45:44;;;;;;;4.05;2.47;;;14.60;79.70;;;;;;4933794;29;20056;-81
2023/05/06 05:48:10;;;;;;;4.93;2.90;;;14.60;79.70;;;;;;4918930;29;20083;-84
2023/05/06 05:50:41;;;;;;;3.85;2.45;;;14.80;79.80;;;;;;4915968;29;20031;-83
2023/05/06 05:53:06;;;;;;;4.95;2.90;;;15.20;80.00;;;;;;4919536;29;20488;-85
2023/05/06 05:56:01;;;;;;;4.80;2.70;;;15.00;79.90;;;;;;4920443;29;20085;-84
2023/05/06 05:58:39;;;;;;;5.07;3.22;;;14.70;79.70;;;;;;4921771;29;20040;-87
2023/05/06 06:01:17;;;;;;;5.30;2.83;;;14.50;79.60;;;;;;4921193;29;20035;-84
2023/05/06 06:07:48;;;;;;;4.47;2.72;;;14.90;79.80;;;;;;4860480;29;20034;-84
2023/05/06 06:10:24;;;;;;;4.68;2.97;;;14.60;79.70;;;;;;4845462;29;20041;-83
2023/05/06 06:36:59;;;;;;;6.38;3.00;;;14.60;79.70;;;;;;4825272;29;20030;-84
2023/05/06 06:42:05;;;;;;;4.72;2.75;;;14.60;79.70;;;;;;4936425;23;20055;-82
2023/05/06 06:44:33;;;;;;;5.40;2.80;;;14.60;79.70;;;;;;4909850;29;20028;-85
2023/05/06 06:46:59;;;;;;;5.25;3.17;;;14.50;79.60;;;;;;4916038;29;20401;-82
2023/05/06 06:49:26;;;;;;;4.63;2.80;;;14.50;79.70;;;;;;4918406;29;20020;-81
2023/05/06 06:51:53;;;;;;;5.85;3.38;;;14.60;79.70;;;;;;4928369;29;20393;-85
2023/05/06 06:54:19;;;;;;;6.15;2.88;;;14.60;79.80;;;;;;4931776;29;20040;-86
2023/05/06 06:56:45;;;;;;;6.28;2.70;;;14.60;79.90;;;;;;4962128;29;20031;-85
2023/05/06 06:59:12;;;;;;;6.55;3.38;;;14.60;79.90;;;;;;4938190;29;20027;-85
2023/05/06 07:35:33;;;;;;;5.03;2.90;;;14.80;80.00;;;;;;4900127;29;20088;-87
2023/05/06 08:23:47;;;;;;;5.88;3.20;;;14.70;79.80;;;;;;4877679;29;20106;-85
2023/05/06 08:26:31;;;;;;;5.63;3.20;;;14.90;79.90;;;;;;4884153;29;20028;-82
2023/05/06 08:29:13;;;;;;;5.68;3.30;;;14.80;79.80;;;;;;4902739;29;20047;-82
2023/05/06 08:31:51;;;;;;;5.63;3.38;;;14.90;79.90;;;;;;4918952;29;20143;-81
2023/05/06 08:34:24;;;;;;;5.70;3.30;;;14.50;79.60;;;;;;4911371;29;20043;-83
2023/05/06 08:36:58;;;;;;;5.72;3.25;;;14.80;79.80;;;;;;4923757;29;20385;-83
2023/05/06 08:39:23;;;;;;;6.82;3.50;;;14.80;79.70;;;;;;4921118;29;20024;-83
2023/05/06 08:41:53;;;;;;;5.43;3.00;;;14.80;79.70;;;;;;4900355;29;20036;-83
2023/05/06 08:44:26;;;;;;;5.72;3.17;;;14.80;79.50;;;;;;4898847;29;20088;-86
2023/05/06 08:46:55;;;;;;;5.68;3.28;;;14.80;79.60;;;;;;4898780;29;20496;-84
2023/05/06 08:49:26;;;;;;;5.65;3.20;;;14.90;79.60;;;;;;4899229;29;20032;-83
2023/05/06 08:51:52;;;;;;;4.75;2.90;;;14.80;79.50;;;;;;4913159;29;20028;-83
2023/05/06 08:54:40;;;;;;;5.40;3.10;;;15.00;79.50;;;;;;4899171;29;20095;-83
2023/05/06 09:05:28;;;;;;;5.20;3.08;;;15.30;78.60;;;;;;4716583;30;20053;-83
2023/05/06 10:39:03;;;;;;;5.05;3.08;;;15.70;77.60;;;;;;4951194;29;20512;-81
2023/05/06 10:41:30;;;;;;;5.45;3.00;;;15.60;77.50;;;;;;4939697;29;20031;-84
2023/05/06 10:43:59;;;;;;;6.50;2.78;;;15.60;77.50;;;;;;4948714;28;20023;-83
2023/05/06 10:46:28;;;;;;;10.50;3.20;;;15.60;77.70;;;;;;4962892;28;20050;-85
2023/05/06 10:49:03;;;;;;;5.82;2.60;;;15.60;77.90;;;;;;4960628;28;20023;-85
2023/05/06 10:51:33;;;;;;;7.10;2.92;;;15.60;78.00;;;;;;4940690;29;20059;-87
2023/05/06 10:54:07;;;;;;;8.15;2.85;;;15.60;78.10;;;;;;4957672;28;20561;-85
2023/05/06 10:56:35;;;;;;;7.50;2.97;;;15.60;78.00;;;;;;4959244;28;20546;-83
2023/05/06 10:59:09;;;;;;;7.50;3.35;;;15.60;77.90;;;;;;4957208;28;20227;-85
2023/05/06 11:09:20;;;;;;;7.10;2.83;;;15.70;77.80;;;;;;4940923;29;20432;-83
2023/05/06 11:11:51;;;;;;;6.03;2.83;;;15.60;77.70;;;;;;4891449;29;20120;-87
2023/05/06 11:14:27;;;;;;;5.45;2.72;;;15.70;77.70;;;;;;4899409;29;20024;-88
2023/05/06 11:16:55;;;;;;;6.20;2.80;;;15.70;77.60;;;;;;4925256;29;20036;-87
2023/05/06 11:19:32;;;;;;;5.22;2.72;;;15.70;77.60;;;;;;4909148;29;20024;-85
2023/05/06 11:21:59;;;;;;;6.25;2.58;;;15.70;77.50;;;;;;4908246;29;20036;-86
2023/05/06 11:24:27;;;;;;;6.68;2.75;;;15.80;77.50;;;;;;4892417;29;20397;-85
2023/05/06 11:26:54;;;;;;;4.95;2.67;;;15.80;77.50;;;;;;4907667;29;20119;-86
2023/05/06 11:29:20;;;;;;;5.75;2.60;;;15.80;77.40;;;;;;4907191;29;20079;-84
2023/05/06 11:31:46;;;;;;;5.35;2.67;;;15.80;77.40;;;;;;4907871;29;20028;-84
2023/05/06 11:34:23;;;;;;;6.15;2.50;;;15.80;77.40;;;;;;4909004;29;20031;-82
2023/05/06 11:36:57;;;;;;;6.07;2.50;;;15.80;77.40;;;;;;4938522;23;20043;-82
2023/05/06 11:39:23;;;;;;;4.75;2.72;;;15.80;77.40;;;;;;4920571;29;20082;-83
2023/05/06 11:41:51;;;;;;;5.28;2.60;;;15.80;77.30;;;;;;4936219;29;20035;-82
2023/05/06 11:44:27;;;;;;;6.28;2.45;;;15.80;77.30;;;;;;4937682;29;20023;-82
2023/05/06 11:47:04;;;;;;;4.60;2.47;;;15.80;77.30;;;;;;4925134;29;20028;-83
2023/05/06 11:49:41;;;;;;;7.20;2.78;;;15.90;77.30;;;;;;4918806;29;20028;-84
2023/05/06 11:52:11;;;;;;;4.30;2.50;;;15.80;77.20;;;;;;4934543;29;20035;-82
2023/05/06 11:54:41;;;;;;;5.85;2.60;;;15.80;77.20;;;;;;4920007;29;20031;-82
2023/05/06 11:57:07;;;;;;;5.70;2.33;;;15.80;77.20;;;;;;4916648;29;20050;-82
2023/05/06 11:59:37;;;;;;;4.53;2.30;;;15.80;77.70;;;;;;4917051;29;20485;-83
2023/05/06 12:02:05;;;;;;;5.18;2.30;;;15.80;77.30;;;;;;4916994;29;20491;-83
2023/05/06 12:04:39;;;;;;;4.45;2.38;;;15.80;77.30;;;;;;4917955;29;20024;-83
2023/05/06 12:07:06;;;;;;;4.68;2.70;;;15.80;77.30;;;;;;4916728;29;20060;-83
2023/05/06 12:09:33;;;;;;;3.90;2.47;;;15.80;77.40;;;;;;4916852;29;20039;-83
2023/05/06 12:11:59;;;;;;;6.80;2.60;;;15.80;77.30;;;;;;4916705;29;20036;-82
2023/05/06 12:14:25;;;;;;;4.30;2.30;;;15.80;77.40;;;;;;4917741;29;20388;-81
2023/05/06 12:16:51;;;;;;;5.10;2.60;;;15.80;77.40;;;;;;4916682;29;20024;-83
2023/05/06 12:19:17;;;;;;;6.28;2.33;;;15.80;77.40;;;;;;4920099;29;20032;-81
2023/05/06 12:21:43;;;;;;;4.28;2.20;;;15.80;77.40;;;;;;4919630;29;20034;-82
2023/05/06 12:24:09;;;;;;;4.70;2.30;;;15.80;77.40;;;;;;4919720;29;20024;-82
2023/05/06 12:26:50;;;;;;;4.72;2.45;;;15.80;77.40;;;;;;4919364;29;20035;-82
2023/05/06 12:29:16;;;;;;;3.88;2.40;;;15.80;77.50;;;;;;4919936;29;20048;-81
2023/05/06 12:31:45;;;;;;;5.85;2.67;;;15.80;77.50;;;;;;4919599;29;20035;-83
2023/05/06 12:34:11;;;;;;;5.10;2.50;;;15.80;77.60;;;;;;4921132;29;20027;-78
2023/05/06 12:36:42;;;;;;;3.97;2.40;;;15.70;77.60;;;;;;4919464;29;20035;-81
2023/05/06 12:39:08;;;;;;;4.60;2.42;;;15.70;77.60;;;;;;4919329;29;20047;-81
2023/05/06 12:41:44;;;;;;;3.95;2.42;;;15.80;77.80;;;;;;4918935;29;20024;-82
2023/05/06 12:44:32;;;;;;;4.22;2.25;;;15.80;77.80;;;;;;4935751;29;20026;-81
2023/05/06 12:46:59;;;;;;;4.38;2.35;;;15.70;77.70;;;;;;4915446;29;20081;-83
2023/05/06 12:49:24;;;;;;;4.78;2.38;;;15.70;77.70;;;;;;4934754;29;20681;-81
2023/05/06 12:52:07;;;;;;;4.13;2.30;;;15.70;77.70;;;;;;4918841;29;20120;-81
2023/05/06 12:54:33;;;;;;;4.13;2.38;;;15.70;77.80;;;;;;4918646;29;20031;-80
2023/05/06 12:56:58;;;;;;;3.42;1.92;;;15.70;77.90;;;;;;4918246;29;20038;-80
2023/05/06 12:59:25;;;;;;;3.72;2.20;;;15.70;77.90;;;;;;4935895;29;20039;-82
2023/05/06 13:01:51;;;;;;;4.68;2.30;;;15.70;77.90;;;;;;4918915;29;20051;-81
2023/05/06 13:04:16;;;;;;;4.47;2.40;;;15.70;77.90;;;;;;4918817;29;20123;-81
2023/05/06 13:06:42;;;;;;;4.85;2.35;;;15.70;78.00;;;;;;4918390;29;20118;-82
2023/05/06 13:09:08;;;;;;;4.50;2.28;;;15.70;78.00;;;;;;4935808;29;20031;-81
2023/05/06 13:11:34;;;;;;;4.07;2.10;;;15.70;78.00;;;;;;4918789;29;20075;-80
2023/05/06 13:13:59;;;;;;;3.97;2.00;;;15.70;78.00;;;;;;4918595;29;20421;-80
2023/05/06 13:16:27;;;;;;;3.92;2.30;;;15.70;78.00;;;;;;4918574;29;20059;-81
2023/05/06 13:18:52;;;;;;;4.10;2.20;;;15.70;78.10;;;;;;4935853;29;20034;-81
2023/05/06 13:21:18;;;;;;;3.70;2.10;;;15.70;78.10;;;;;;4919155;29;20488;-82
2023/05/06 13:23:46;;;;;;;4.07;2.33;;;15.70;78.10;;;;;;4935608;29;20485;-81
2023/05/06 13:26:12;;;;;;;3.83;2.20;;;15.60;78.10;;;;;;4918402;29;20046;-80
2023/05/06 13:28:38;;;;;;;136.23;10.70;;;15.70;78.20;;;;;;4936003;29;20032;-80
2023/05/06 13:31:07;;;;;;;97.47;10.18;;;15.60;79.30;;;;;;4918867;29;20448;-81
2023/05/06 13:33:36;;;;;;;92.63;9.40;;;15.70;81.00;;;;;;4918369;29;20031;-81
2023/05/06 13:36:01;;;;;;;80.75;7.97;;;15.70;81.10;;;;;;4935392;29;20039;-82
2023/05/06 13:38:27;;;;;;;75.10;8.45;;;15.70;81.10;;;;;;4934545;29;20039;-82
2023/05/06 13:40:53;;;;;;;80.20;7.78;;;15.70;80.90;;;;;;4932966;29;20036;-83
2023/05/06 13:43:20;;;;;;;73.50;8.00;;;15.70;80.90;;;;;;4917786;29;20122;-81
2023/05/06 13:45:45;;;;;;;81.30;9.23;;;15.60;80.80;;;;;;4920897;29;20027;-80
2023/05/06 13:48:14;;;;;;;55.47;7.30;;;15.60;80.80;;;;;;4938082;29;20036;-81
2023/05/06 13:50:41;;;;;;;77.32;7.70;;;15.60;80.90;;;;;;4938325;29;20465;-81
2023/05/06 13:53:06;;;;;;;64.00;7.57;;;15.60;80.80;;;;;;4921132;29;20192;-82
2023/05/06 13:55:32;;;;;;;58.95;6.55;;;15.70;81.50;;;;;;4920615;29;20027;-80
2023/05/06 13:57:57;;;;;;;60.22;7.20;;;15.70;82.40;;;;;;4936944;29;20040;-81
2023/05/06 14:00:23;;;;;;;92.90;10.82;;;15.80;84.70;;;;;;4920985;29;20031;-81
2023/05/06 14:02:48;;;;;;;84.78;11.52;;;15.80;83.40;;;;;;4921113;29;20027;-81
2023/05/06 14:05:14;;;;;;;83.53;9.30;;;15.80;84.60;;;;;;4937645;29;20511;-81
2023/05/06 14:07:40;;;;;;;78.30;10.23;;;15.80;84.30;;;;;;4920931;29;20016;-81
2023/05/06 14:10:07;;;;;;;79.60;8.90;;;15.70;83.90;;;;;;4920921;29;20028;-79
2023/05/06 14:12:32;;;;;;;77.78;9.60;;;15.70;83.80;;;;;;4921046;29;20032;-82
2023/05/06 14:14:57;;;;;;;72.40;9.63;;;15.70;83.60;;;;;;4920951;29;20043;-83
2023/05/06 14:17:23;;;;;;;66.82;9.68;;;15.70;83.50;;;;;;4920357;29;20136;-83
2023/05/06 14:19:48;;;;;;;60.40;9.30;;;15.70;83.20;;;;;;4937849;29;20035;-81
2023/05/06 14:22:14;;;;;;;65.50;9.20;;;15.70;83.10;;;;;;4937565;29;20481;-82
2023/05/06 14:24:39;;;;;;;54.80;9.00;;;15.70;83.00;;;;;;4937519;29;20078;-83
2023/05/06 14:27:05;;;;;;;53.17;8.18;;;15.70;82.80;;;;;;4937532;29;20366;-83
2023/05/06 14:29:31;;;;;;;54.63;8.02;;;15.70;82.70;;;;;;4920690;29;20024;-82
2023/05/06 14:31:56;;;;;;;51.67;7.68;;;15.70;82.60;;;;;;4920854;29;20024;-83
2023/05/06 14:34:21;;;;;;;51.08;8.00;;;15.70;82.60;;;;;;4920483;29;20515;-83
2023/05/06 14:36:47;;;;;;;53.83;7.95;;;15.70;82.50;;;;;;4890277;29;996441;-81
2023/05/06 14:39:13;;;;;;;45.72;7.95;;;15.60;82.30;;;;;;4919600;29;20032;-83
2023/05/06 14:41:38;;;;;;;42.15;6.78;;;15.60;82.40;;;;;;4915507;29;20136;-81
2023/05/06 14:44:04;;;;;;;39.85;7.38;;;15.60;82.20;;;;;;4938369;29;20062;-82
2023/05/06 14:46:29;;;;;;;41.30;7.53;;;15.60;82.10;;;;;;4918431;29;20048;-82
2023/05/06 14:48:55;;;;;;;43.45;7.13;;;15.70;82.10;;;;;;4902765;29;20028;-82
2023/05/06 14:51:20;;;;;;;33.78;7.05;;;15.60;82.00;;;;;;4918171;29;20513;-84
2023/05/06 14:53:46;;;;;;;36.38;6.82;;;15.70;82.00;;;;;;4917731;29;20134;-84
2023/05/06 14:56:11;;;;;;;28.80;6.20;;;15.60;81.80;;;;;;4920258;29;20028;-84
2023/05/06 14:58:38;;;;;;;32.35;6.65;;;15.70;81.90;;;;;;4938089;29;20092;-84
2023/05/06 15:01:04;;;;;;;30.08;6.97;;;15.60;81.80;;;;;;4937744;29;20039;-84
2023/05/06 15:03:29;;;;;;;27.00;5.88;;;15.70;81.80;;;;;;4920669;29;20036;-85
2023/05/06 15:05:55;;;;;;;28.42;6.13;;;15.60;81.80;;;;;;4920221;29;20104;-85
2023/05/06 15:08:20;;;;;;;27.65;5.70;;;15.60;81.60;;;;;;4920725;29;20803;-84
2023/05/06 15:10:48;;;;;;;32.67;6.38;;;15.60;81.70;;;;;;4920697;29;20023;-83
2023/05/06 15:13:13;;;;;;;25.02;5.78;;;15.60;81.60;;;;;;4937851;29;20031;-83
2023/05/06 15:15:39;;;;;;;28.48;5.93;;;15.60;81.60;;;;;;4937023;29;20032;-84
2023/05/06 15:18:04;;;;;;;26.65;6.40;;;15.60;81.70;;;;;;4920643;29;20035;-83
2023/05/06 15:20:30;;;;;;;25.25;5.80;;;15.60;81.60;;;;;;4937600;29;20028;-83
2023/05/06 15:22:55;;;;;;;29.13;5.60;;;15.60;81.80;;;;;;4920769;29;20031;-84
2023/05/06 15:25:21;;;;;;;26.45;5.68;;;15.60;81.70;;;;;;4935626;29;20023;-85
2023/05/06 15:27:46;;;;;;;22.92;6.10;;;15.60;81.90;;;;;;4920253;29;20024;-82
2023/05/06 15:30:12;;;;;;;25.38;6.18;;;15.60;82.00;;;;;;4920364;29;20032;-83
2023/05/06 15:32:38;;;;;;;27.27;5.88;;;15.60;82.10;;;;;;4920612;29;20062;-83
2023/05/06 15:35:05;;;;;;;23.83;5.03;;;15.60;81.90;;;;;;4919800;29;20083;-82
2023/05/06 15:37:34;;;;;;;29.45;6.18;;;15.60;81.80;;;;;;4919951;29;20040;-83
2023/05/06 15:40:00;;;;;;;18.30;5.10;;;15.60;82.30;;;;;;4937420;29;20032;-83
2023/05/06 15:42:26;;;;;;;22.52;5.10;;;15.60;81.80;;;;;;4937185;29;20031;-82
2023/05/06 15:44:53;;;;;;;26.73;5.70;;;15.60;81.90;;;;;;4922190;29;20030;-83
2023/05/06 15:47:19;;;;;;;18.48;5.15;;;15.60;81.70;;;;;;4922685;29;20078;-83
2023/05/06 15:49:44;;;;;;;27.17;5.70;;;15.50;81.70;;;;;;4924387;29;20424;-84
2023/05/06 15:52:11;;;;;;;26.48;5.40;;;15.60;82.10;;;;;;4920970;29;20028;-84
2023/05/06 15:54:36;;;;;;;154.45;12.55;;;15.60;82.20;;;;;;4924693;29;20119;-85
2023/05/06 15:57:05;;;;;;;287.35;20.65;;;15.60;83.30;;;;;;4939577;29;20059;-85
2023/05/06 15:59:30;;;;;;;325.80;22.60;;;15.60;82.60;;;;;;4923626;29;20480;-83
2023/05/06 16:01:56;;;;;;;317.17;19.35;;;15.60;82.90;;;;;;4939815;29;20043;-83
2023/05/06 16:04:22;;;;;;;302.20;21.05;;;15.60;82.70;;;;;;4938053;29;20490;-83
2023/05/06 16:06:48;;;;;;;257.23;19.00;;;15.60;83.10;;;;;;4933358;29;20032;-84
2023/05/06 16:09:13;;;;;;;246.18;20.35;;;15.60;82.90;;;;;;4938799;29;20032;-83
2023/05/06 16:11:39;;;;;;;227.05;19.63;;;15.60;82.80;;;;;;4919397;29;20020;-84
2023/05/06 16:14:04;;;;;;;195.57;17.23;;;15.50;82.60;;;;;;4919640;29;20031;-84
2023/05/06 16:16:30;;;;;;;211.23;18.50;;;15.60;82.90;;;;;;4919492;29;20432;-85
2023/05/06 16:18:55;;;;;;;161.27;14.05;;;15.60;82.80;;;;;;4936642;29;20028;-84
2023/05/06 16:21:21;;;;;;;168.05;15.63;;;15.60;82.70;;;;;;4918995;29;20023;-84
2023/05/06 16:23:47;;;;;;;140.15;13.60;;;15.60;82.50;;;;;;4919044;29;20031;-84
2023/05/06 16:26:13;;;;;;;147.32;12.48;;;15.60;83.00;;;;;;4916972;29;20165;-85
2023/05/06 16:28:39;;;;;;;130.75;12.63;;;15.50;82.40;;;;;;4933457;29;20074;-84
2023/05/06 16:31:05;;;;;;;128.25;13.30;;;15.60;82.40;;;;;;4936496;29;20110;-84
2023/05/06 16:33:31;;;;;;;119.88;13.13;;;15.50;82.30;;;;;;4918931;29;20118;-83
2023/05/06 16:35:56;;;;;;;101.57;11.52;;;15.50;82.90;;;;;;4918849;29;20553;-83
2023/05/06 16:38:21;;;;;;;109.53;10.77;;;15.60;82.30;;;;;;4901395;29;20043;-86